sensor_id;sensor_type;location;lat;lon;timestamp;P1;durP1;ratioP1;P2;durP2;ratioP2
35839;SDS011;35514;50.504;30.500;2023-08-30T00:00:31;30.13;;;15.23;;
35839;SDS011;35514;50.504;30.500;2023-08-30T00:02:59;34.15;;;14.88;;
35839;SDS011;35514;50.504;30.500;2023-08-30T00:05:27;36.05;;;17.00;;
35839;SDS011;35514;50.504;30.500;2023-08-30T00:07:55;32.38;;;15.52;;
35839;SDS011;35514;50.504;30.500;2023-08-30T00:10:23;30.27;;;15.48;;
35839;SDS011;35514;50.504;30.500;2023-08-30T00:12:50;30.23;;;15.80;;
35839;SDS011;35514;50.504;30.500;2023-08-30T00:15:18;30.13;;;16.42;;
35839;SDS011;35514;50.504;30.500;2023-08-30T00:17:47;29.15;;;15.75;;
35839;SDS011;35514;50.504;30.500;2023-08-30T00:20:17;31.65;;;15.40;;
35839;SDS011;35514;50.504;30.500;2023-08-30T00:22:45;27.83;;;15.00;;
35839;SDS011;35514;50.504;30.500;2023-08-30T00:25:13;27.58;;;15.30;;
35839;SDS011;35514;50.504;30.500;2023-08-30T00:27:41;34.00;;;14.93;;
35839;SDS011;35514;50.504;30.500;2023-08-30T00:30:10;34.70;;;16.08;;
35839;SDS011;35514;50.504;30.500;2023-08-30T00:32:38;30.80;;;15.57;;
35839;SDS011;35514;50.504;30.500;2023-08-30T00:35:07;32.97;;;14.20;;
35839;SDS011;35514;50.504;30.500;2023-08-30T00:37:35;32.42;;;14.60;;
35839;SDS011;35514;50.504;30.500;2023-08-30T00:40:03;32.72;;;14.77;;
35839;SDS011;35514;50.504;30.500;2023-08-30T00:42:32;26.10;;;14.70;;
35839;SDS011;35514;50.504;30.500;2023-08-30T00:45:00;31.70;;;16.55;;
35839;SDS011;35514;50.504;30.500;2023-08-30T00:47:28;35.28;;;16.83;;
35839;SDS011;35514;50.504;30.500;2023-08-30T00:49:56;31.52;;;16.30;;
35839;SDS011;35514;50.504;30.500;2023-08-30T00:52:25;32.17;;;16.23;;
35839;SDS011;35514;50.504;30.500;2023-08-30T00:54:53;41.42;;;16.48;;
35839;SDS011;35514;50.504;30.500;2023-08-30T00:57:21;29.50;;;15.68;;
35839;SDS011;35514;50.504;30.500;2023-08-30T00:59:49;31.38;;;16.55;;
35839;SDS011;35514;50.504;30.500;2023-08-30T01:02:18;24.85;;;14.70;;
35839;SDS011;35514;50.504;30.500;2023-08-30T01:04:46;25.98;;;15.40;;
35839;SDS011;35514;50.504;30.500;2023-08-30T01:07:14;30.15;;;14.88;;
35839;SDS011;35514;50.504;30.500;2023-08-30T01:09:44;26.42;;;15.45;;
35839;SDS011;35514;50.504;30.500;2023-08-30T01:12:13;26.67;;;15.70;;
35839;SDS011;35514;50.504;30.500;2023-08-30T01:14:45;28.73;;;14.98;;
35839;SDS011;35514;50.504;30.500;2023-08-30T01:17:17;33.55;;;16.33;;
35839;SDS011;35514;50.504;30.500;2023-08-30T01:19:47;26.58;;;15.07;;
35839;SDS011;35514;50.504;30.500;2023-08-30T01:22:17;29.20;;;16.55;;
35839;SDS011;35514;50.504;30.500;2023-08-30T01:24:52;30.67;;;15.30;;
35839;SDS011;35514;50.504;30.500;2023-08-30T01:27:25;28.58;;;16.70;;
35839;SDS011;35514;50.504;30.500;2023-08-30T01:29:53;26.67;;;15.93;;
35839;SDS011;35514;50.504;30.500;2023-08-30T01:32:21;27.17;;;15.88;;
35839;SDS011;35514;50.504;30.500;2023-08-30T01:34:52;34.88;;;16.10;;
35839;SDS011;35514;50.504;30.500;2023-08-30T01:37:20;26.48;;;14.48;;
35839;SDS011;35514;50.504;30.500;2023-08-30T01:39:48;31.50;;;15.73;;
35839;SDS011;35514;50.504;30.500;2023-08-30T01:42:17;30.67;;;16.48;;
35839;SDS011;35514;50.504;30.500;2023-08-30T01:44:49;28.50;;;16.45;;
35839;SDS011;35514;50.504;30.500;2023-08-30T01:47:21;26.77;;;15.13;;
35839;SDS011;35514;50.504;30.500;2023-08-30T01:49:50;29.60;;;17.02;;
35839;SDS011;35514;50.504;30.500;2023-08-30T01:52:18;28.95;;;16.05;;
35839;SDS011;35514;50.504;30.500;2023-08-30T01:54:46;29.25;;;15.73;;
35839;SDS011;35514;50.504;30.500;2023-08-30T01:57:15;32.13;;;16.50;;
35839;SDS011;35514;50.504;30.500;2023-08-30T01:59:42;38.55;;;16.33;;
35839;SDS011;35514;50.504;30.500;2023-08-30T02:02:12;33.95;;;17.00;;
35839;SDS011;35514;50.504;30.500;2023-08-30T02:04:39;30.83;;;16.05;;
35839;SDS011;35514;50.504;30.500;2023-08-30T02:07:08;30.17;;;16.02;;
35839;SDS011;35514;50.504;30.500;2023-08-30T02:09:38;28.42;;;16.92;;
35839;SDS011;35514;50.504;30.500;2023-08-30T02:12:09;34.08;;;16.80;;
35839;SDS011;35514;50.504;30.500;2023-08-30T02:14:38;33.60;;;16.83;;
35839;SDS011;35514;50.504;30.500;2023-08-30T02:17:06;35.55;;;15.88;;
35839;SDS011;35514;50.504;30.500;2023-08-30T02:19:36;27.48;;;15.95;;
35839;SDS011;35514;50.504;30.500;2023-08-30T02:22:03;32.50;;;18.27;;
35839;SDS011;35514;50.504;30.500;2023-08-30T02:24:31;32.15;;;17.75;;
35839;SDS011;35514;50.504;30.500;2023-08-30T02:26:59;32.55;;;16.15;;
35839;SDS011;35514;50.504;30.500;2023-08-30T02:29:27;36.90;;;15.68;;
35839;SDS011;35514;50.504;30.500;2023-08-30T02:31:55;30.63;;;17.05;;
35839;SDS011;35514;50.504;30.500;2023-08-30T02:34:23;34.45;;;16.67;;
35839;SDS011;35514;50.504;30.500;2023-08-30T02:36:52;30.50;;;16.90;;
35839;SDS011;35514;50.504;30.500;2023-08-30T02:39:20;35.22;;;17.60;;
35839;SDS011;35514;50.504;30.500;2023-08-30T02:41:47;29.65;;;17.15;;
35839;SDS011;35514;50.504;30.500;2023-08-30T02:44:15;37.05;;;17.95;;
35839;SDS011;35514;50.504;30.500;2023-08-30T02:46:43;33.00;;;16.80;;
35839;SDS011;35514;50.504;30.500;2023-08-30T02:49:16;30.55;;;16.67;;
35839;SDS011;35514;50.504;30.500;2023-08-30T02:51:44;34.40;;;18.63;;
35839;SDS011;35514;50.504;30.500;2023-08-30T02:54:13;36.10;;;17.23;;
35839;SDS011;35514;50.504;30.500;2023-08-30T02:56:41;29.27;;;17.17;;
35839;SDS011;35514;50.504;30.500;2023-08-30T02:59:10;38.85;;;17.80;;
35839;SDS011;35514;50.504;30.500;2023-08-30T03:01:38;38.00;;;17.05;;
35839;SDS011;35514;50.504;30.500;2023-08-30T03:04:06;31.40;;;17.05;;
35839;SDS011;35514;50.504;30.500;2023-08-30T03:06:34;37.22;;;17.13;;
35839;SDS011;35514;50.504;30.500;2023-08-30T03:09:02;33.72;;;18.92;;
35839;SDS011;35514;50.504;30.500;2023-08-30T03:11:32;35.95;;;17.92;;
35839;SDS011;35514;50.504;30.500;2023-08-30T03:13:59;34.10;;;17.50;;
35839;SDS011;35514;50.504;30.500;2023-08-30T03:16:27;31.92;;;17.17;;
35839;SDS011;35514;50.504;30.500;2023-08-30T03:18:55;42.97;;;23.17;;
35839;SDS011;35514;50.504;30.500;2023-08-30T03:21:23;35.72;;;20.33;;
35839;SDS011;35514;50.504;30.500;2023-08-30T03:23:51;31.95;;;17.17;;
35839;SDS011;35514;50.504;30.500;2023-08-30T03:26:19;31.60;;;18.13;;
35839;SDS011;35514;50.504;30.500;2023-08-30T03:28:48;27.60;;;17.35;;
35839;SDS011;35514;50.504;30.500;2023-08-30T03:31:16;42.90;;;18.50;;
35839;SDS011;35514;50.504;30.500;2023-08-30T03:33:44;31.48;;;17.70;;
35839;SDS011;35514;50.504;30.500;2023-08-30T03:36:14;29.63;;;16.50;;
35839;SDS011;35514;50.504;30.500;2023-08-30T03:38:42;37.40;;;17.52;;
35839;SDS011;35514;50.504;30.500;2023-08-30T03:41:11;26.33;;;16.48;;
35839;SDS011;35514;50.504;30.500;2023-08-30T03:43:39;27.17;;;15.30;;
35839;SDS011;35514;50.504;30.500;2023-08-30T03:46:08;29.58;;;16.77;;
35839;SDS011;35514;50.504;30.500;2023-08-30T03:48:38;33.03;;;16.52;;
35839;SDS011;35514;50.504;30.500;2023-08-30T03:51:06;27.08;;;16.25;;
35839;SDS011;35514;50.504;30.500;2023-08-30T03:53:34;29.33;;;16.23;;
35839;SDS011;35514;50.504;30.500;2023-08-30T03:56:01;26.02;;;16.02;;
35839;SDS011;35514;50.504;30.500;2023-08-30T03:58:30;37.15;;;16.65;;
35839;SDS011;35514;50.504;30.500;2023-08-30T04:00:57;29.67;;;15.70;;
35839;SDS011;35514;50.504;30.500;2023-08-30T04:03:27;26.40;;;14.98;;
35839;SDS011;35514;50.504;30.500;2023-08-30T04:05:55;28.08;;;15.27;;
35839;SDS011;35514;50.504;30.500;2023-08-30T04:08:26;27.75;;;16.10;;
35839;SDS011;35514;50.504;30.500;2023-08-30T04:10:54;29.23;;;15.43;;
35839;SDS011;35514;50.504;30.500;2023-08-30T04:13:22;27.60;;;14.38;;
35839;SDS011;35514;50.504;30.500;2023-08-30T04:15:49;29.05;;;14.90;;
35839;SDS011;35514;50.504;30.500;2023-08-30T04:18:18;33.67;;;15.20;;
35839;SDS011;35514;50.504;30.500;2023-08-30T04:20:47;27.42;;;17.65;;
35839;SDS011;35514;50.504;30.500;2023-08-30T04:23:15;28.67;;;15.00;;
35839;SDS011;35514;50.504;30.500;2023-08-30T04:25:44;30.60;;;15.40;;
35839;SDS011;35514;50.504;30.500;2023-08-30T04:28:12;30.60;;;15.63;;
35839;SDS011;35514;50.504;30.500;2023-08-30T04:30:39;27.02;;;14.90;;
35839;SDS011;35514;50.504;30.500;2023-08-30T04:33:07;29.35;;;15.73;;
35839;SDS011;35514;50.504;30.500;2023-08-30T04:35:36;27.77;;;15.38;;
35839;SDS011;35514;50.504;30.500;2023-08-30T04:38:06;29.83;;;15.07;;
35839;SDS011;35514;50.504;30.500;2023-08-30T04:40:35;23.25;;;14.38;;
35839;SDS011;35514;50.504;30.500;2023-08-30T04:43:05;25.42;;;14.77;;
35839;SDS011;35514;50.504;30.500;2023-08-30T04:45:33;22.38;;;14.43;;
35839;SDS011;35514;50.504;30.500;2023-08-30T04:48:01;25.38;;;15.07;;
35839;SDS011;35514;50.504;30.500;2023-08-30T04:50:29;22.75;;;14.55;;
35839;SDS011;35514;50.504;30.500;2023-08-30T04:52:57;27.73;;;15.60;;
35839;SDS011;35514;50.504;30.500;2023-08-30T04:55:28;27.23;;;13.48;;
35839;SDS011;35514;50.504;30.500;2023-08-30T04:57:55;36.92;;;15.30;;
35839;SDS011;35514;50.504;30.500;2023-08-30T05:00:23;31.98;;;14.60;;
35839;SDS011;35514;50.504;30.500;2023-08-30T05:02:51;24.63;;;14.00;;
35839;SDS011;35514;50.504;30.500;2023-08-30T05:05:19;24.67;;;14.50;;
35839;SDS011;35514;50.504;30.500;2023-08-30T05:07:47;30.98;;;15.07;;
35839;SDS011;35514;50.504;30.500;2023-08-30T05:10:15;26.02;;;13.93;;
35839;SDS011;35514;50.504;30.500;2023-08-30T05:12:44;29.73;;;14.88;;
35839;SDS011;35514;50.504;30.500;2023-08-30T05:15:18;24.33;;;14.43;;
35839;SDS011;35514;50.504;30.500;2023-08-30T05:17:48;22.70;;;14.65;;
35839;SDS011;35514;50.504;30.500;2023-08-30T05:20:16;19.70;;;13.63;;
35839;SDS011;35514;50.504;30.500;2023-08-30T05:22:44;24.35;;;13.15;;
35839;SDS011;35514;50.504;30.500;2023-08-30T05:25:12;27.55;;;13.55;;
35839;SDS011;35514;50.504;30.500;2023-08-30T05:27:39;24.95;;;13.40;;
35839;SDS011;35514;50.504;30.500;2023-08-30T05:30:09;21.08;;;12.00;;
35839;SDS011;35514;50.504;30.500;2023-08-30T05:32:40;22.10;;;12.88;;
35839;SDS011;35514;50.504;30.500;2023-08-30T05:35:08;20.60;;;12.73;;
35839;SDS011;35514;50.504;30.500;2023-08-30T05:37:36;24.73;;;13.40;;
35839;SDS011;35514;50.504;30.500;2023-08-30T05:40:05;24.30;;;13.32;;
35839;SDS011;35514;50.504;30.500;2023-08-30T05:42:33;27.80;;;14.25;;
35839;SDS011;35514;50.504;30.500;2023-08-30T05:45:01;27.58;;;13.38;;
35839;SDS011;35514;50.504;30.500;2023-08-30T05:47:30;22.02;;;12.43;;
35839;SDS011;35514;50.504;30.500;2023-08-30T05:49:58;20.50;;;13.02;;
35839;SDS011;35514;50.504;30.500;2023-08-30T05:52:26;21.52;;;12.57;;
35839;SDS011;35514;50.504;30.500;2023-08-30T05:54:54;19.80;;;12.85;;
35839;SDS011;35514;50.504;30.500;2023-08-30T05:57:21;32.80;;;13.63;;
35839;SDS011;35514;50.504;30.500;2023-08-30T05:59:52;25.27;;;13.25;;
35839;SDS011;35514;50.504;30.500;2023-08-30T06:02:18;23.48;;;13.02;;
35839;SDS011;35514;50.504;30.500;2023-08-30T06:04:47;20.90;;;13.05;;
35839;SDS011;35514;50.504;30.500;2023-08-30T06:07:15;21.27;;;12.63;;
35839;SDS011;35514;50.504;30.500;2023-08-30T06:09:43;21.70;;;13.25;;
35839;SDS011;35514;50.504;30.500;2023-08-30T06:12:11;25.40;;;12.88;;
35839;SDS011;35514;50.504;30.500;2023-08-30T06:14:39;23.70;;;12.05;;
35839;SDS011;35514;50.504;30.500;2023-08-30T06:17:07;31.58;;;13.15;;
35839;SDS011;35514;50.504;30.500;2023-08-30T06:19:37;24.92;;;15.23;;
35839;SDS011;35514;50.504;30.500;2023-08-30T06:22:07;34.33;;;15.50;;
35839;SDS011;35514;50.504;30.500;2023-08-30T06:24:34;21.17;;;12.90;;
35839;SDS011;35514;50.504;30.500;2023-08-30T06:27:02;22.85;;;11.07;;
35839;SDS011;35514;50.504;30.500;2023-08-30T06:29:30;22.83;;;11.77;;
35839;SDS011;35514;50.504;30.500;2023-08-30T06:31:58;23.65;;;11.40;;
35839;SDS011;35514;50.504;30.500;2023-08-30T06:34:26;26.38;;;13.27;;
35839;SDS011;35514;50.504;30.500;2023-08-30T06:36:54;21.95;;;11.23;;
35839;SDS011;35514;50.504;30.500;2023-08-30T06:39:23;21.45;;;12.20;;
35839;SDS011;35514;50.504;30.500;2023-08-30T06:41:51;17.42;;;10.93;;
35839;SDS011;35514;50.504;30.500;2023-08-30T06:44:19;24.13;;;11.30;;
35839;SDS011;35514;50.504;30.500;2023-08-30T06:46:48;19.48;;;11.38;;
35839;SDS011;35514;50.504;30.500;2023-08-30T06:49:16;19.48;;;11.15;;
35839;SDS011;35514;50.504;30.500;2023-08-30T06:51:43;20.98;;;11.10;;
35839;SDS011;35514;50.504;30.500;2023-08-30T06:54:11;21.08;;;11.93;;
35839;SDS011;35514;50.504;30.500;2023-08-30T06:56:40;21.25;;;11.88;;
35839;SDS011;35514;50.504;30.500;2023-08-30T06:59:08;21.85;;;12.18;;
35839;SDS011;35514;50.504;30.500;2023-08-30T07:01:36;33.88;;;12.95;;
35839;SDS011;35514;50.504;30.500;2023-08-30T07:04:04;23.90;;;11.75;;
35839;SDS011;35514;50.504;30.500;2023-08-30T07:06:32;19.08;;;12.02;;
35839;SDS011;35514;50.504;30.500;2023-08-30T07:09:00;21.77;;;11.80;;
35839;SDS011;35514;50.504;30.500;2023-08-30T07:11:34;29.13;;;12.95;;
35839;SDS011;35514;50.504;30.500;2023-08-30T07:14:03;23.95;;;12.38;;
35839;SDS011;35514;50.504;30.500;2023-08-30T07:16:31;20.67;;;11.23;;
35839;SDS011;35514;50.504;30.500;2023-08-30T07:18:59;22.73;;;11.68;;
35839;SDS011;35514;50.504;30.500;2023-08-30T07:21:28;15.25;;;11.10;;
35839;SDS011;35514;50.504;30.500;2023-08-30T07:23:56;22.85;;;10.90;;
35839;SDS011;35514;50.504;30.500;2023-08-30T07:26:29;26.67;;;13.80;;
35839;SDS011;35514;50.504;30.500;2023-08-30T07:28:57;19.05;;;11.02;;
35839;SDS011;35514;50.504;30.500;2023-08-30T07:31:26;20.15;;;11.07;;
35839;SDS011;35514;50.504;30.500;2023-08-30T07:33:53;20.88;;;10.70;;
35839;SDS011;35514;50.504;30.500;2023-08-30T07:36:22;20.63;;;11.20;;
35839;SDS011;35514;50.504;30.500;2023-08-30T07:39:03;27.73;;;12.00;;
35839;SDS011;35514;50.504;30.500;2023-08-30T07:41:30;18.80;;;11.38;;
35839;SDS011;35514;50.504;30.500;2023-08-30T07:43:58;22.33;;;10.98;;
35839;SDS011;35514;50.504;30.500;2023-08-30T07:46:27;21.50;;;11.55;;
35839;SDS011;35514;50.504;30.500;2023-08-30T07:48:55;21.40;;;10.75;;
35839;SDS011;35514;50.504;30.500;2023-08-30T07:51:23;19.88;;;10.63;;
35839;SDS011;35514;50.504;30.500;2023-08-30T07:53:51;33.17;;;10.77;;
35839;SDS011;35514;50.504;30.500;2023-08-30T07:56:19;22.30;;;10.70;;
35839;SDS011;35514;50.504;30.500;2023-08-30T07:58:47;15.55;;;9.80;;
35839;SDS011;35514;50.504;30.500;2023-08-30T08:01:15;22.80;;;10.25;;
35839;SDS011;35514;50.504;30.500;2023-08-30T08:03:44;14.70;;;9.27;;
35839;SDS011;35514;50.504;30.500;2023-08-30T08:06:32;17.98;;;9.93;;
35839;SDS011;35514;50.504;30.500;2023-08-30T08:09:00;23.05;;;14.10;;
35839;SDS011;35514;50.504;30.500;2023-08-30T08:11:28;21.63;;;10.30;;
35839;SDS011;35514;50.504;30.500;2023-08-30T08:14:02;14.35;;;8.70;;
35839;SDS011;35514;50.504;30.500;2023-08-30T08:18:59;17.25;;;9.10;;
35839;SDS011;35514;50.504;30.500;2023-08-30T08:21:28;18.75;;;8.82;;
35839;SDS011;35514;50.504;30.500;2023-08-30T08:23:58;18.00;;;9.35;;
35839;SDS011;35514;50.504;30.500;2023-08-30T08:26:27;18.35;;;9.38;;
35839;SDS011;35514;50.504;30.500;2023-08-30T08:28:56;12.57;;;8.65;;
35839;SDS011;35514;50.504;30.500;2023-08-30T08:31:23;17.58;;;8.48;;
35839;SDS011;35514;50.504;30.500;2023-08-30T08:33:52;13.00;;;7.80;;
35839;SDS011;35514;50.504;30.500;2023-08-30T08:36:33;19.30;;;8.20;;
35839;SDS011;35514;50.504;30.500;2023-08-30T08:39:01;15.48;;;7.30;;
35839;SDS011;35514;50.504;30.500;2023-08-30T08:41:32;20.63;;;8.52;;
35839;SDS011;35514;50.504;30.500;2023-08-30T08:44:04;19.45;;;10.85;;
35839;SDS011;35514;50.504;30.500;2023-08-30T08:46:35;16.70;;;7.38;;
35839;SDS011;35514;50.504;30.500;2023-08-30T08:49:08;10.02;;;7.43;;
35839;SDS011;35514;50.504;30.500;2023-08-30T08:51:38;11.73;;;7.07;;
35839;SDS011;35514;50.504;30.500;2023-08-30T08:54:06;14.85;;;7.53;;
35839;SDS011;35514;50.504;30.500;2023-08-30T08:56:35;15.93;;;7.22;;
35839;SDS011;35514;50.504;30.500;2023-08-30T08:59:03;13.95;;;7.50;;
35839;SDS011;35514;50.504;30.500;2023-08-30T09:01:32;12.43;;;7.03;;
35839;SDS011;35514;50.504;30.500;2023-08-30T09:04:05;10.63;;;7.22;;
35839;SDS011;35514;50.504;30.500;2023-08-30T09:06:34;10.40;;;7.28;;
35839;SDS011;35514;50.504;30.500;2023-08-30T09:09:03;18.35;;;7.00;;
35839;SDS011;35514;50.504;30.500;2023-08-30T09:11:31;36.15;;;8.73;;
35839;SDS011;35514;50.504;30.500;2023-08-30T09:14:02;11.35;;;6.85;;
35839;SDS011;35514;50.504;30.500;2023-08-30T09:16:31;12.50;;;6.65;;
35839;SDS011;35514;50.504;30.500;2023-08-30T09:18:59;16.83;;;6.72;;
35839;SDS011;35514;50.504;30.500;2023-08-30T09:21:30;16.30;;;7.32;;
35839;SDS011;35514;50.504;30.500;2023-08-30T09:23:59;14.18;;;7.22;;
35839;SDS011;35514;50.504;30.500;2023-08-30T09:26:31;11.18;;;6.78;;
35839;SDS011;35514;50.504;30.500;2023-08-30T09:29:02;12.10;;;6.32;;
35839;SDS011;35514;50.504;30.500;2023-08-30T09:31:34;23.30;;;6.93;;
35839;SDS011;35514;50.504;30.500;2023-08-30T09:34:05;17.77;;;6.78;;
35839;SDS011;35514;50.504;30.500;2023-08-30T09:36:33;11.52;;;6.28;;
35839;SDS011;35514;50.504;30.500;2023-08-30T09:39:04;9.88;;;6.03;;
35839;SDS011;35514;50.504;30.500;2023-08-30T09:41:33;13.63;;;6.32;;
35839;SDS011;35514;50.504;30.500;2023-08-30T09:44:06;9.10;;;6.22;;
35839;SDS011;35514;50.504;30.500;2023-08-30T09:46:45;21.75;;;5.93;;
35839;SDS011;35514;50.504;30.500;2023-08-30T09:49:19;8.40;;;5.80;;
35839;SDS011;35514;50.504;30.500;2023-08-30T09:51:48;13.70;;;5.53;;
35839;SDS011;35514;50.504;30.500;2023-08-30T09:54:17;13.32;;;5.72;;
35839;SDS011;35514;50.504;30.500;2023-08-30T09:57:05;10.77;;;5.88;;
35839;SDS011;35514;50.504;30.500;2023-08-30T09:59:33;10.57;;;5.60;;
35839;SDS011;35514;50.504;30.500;2023-08-30T10:02:01;10.38;;;5.72;;
35839;SDS011;35514;50.504;30.500;2023-08-30T10:04:31;11.40;;;5.38;;
35839;SDS011;35514;50.504;30.500;2023-08-30T10:06:59;9.50;;;5.22;;
35839;SDS011;35514;50.504;30.500;2023-08-30T10:09:31;7.78;;;5.18;;
35839;SDS011;35514;50.504;30.500;2023-08-30T10:12:00;11.70;;;6.35;;
35839;SDS011;35514;50.504;30.500;2023-08-30T10:14:30;7.57;;;5.15;;
35839;SDS011;35514;50.504;30.500;2023-08-30T10:17:01;12.80;;;5.28;;
35839;SDS011;35514;50.504;30.500;2023-08-30T10:19:29;13.57;;;5.93;;
35839;SDS011;35514;50.504;30.500;2023-08-30T10:22:00;14.13;;;6.00;;
35839;SDS011;35514;50.504;30.500;2023-08-30T10:24:30;11.60;;;5.18;;
35839;SDS011;35514;50.504;30.500;2023-08-30T10:27:13;12.27;;;5.30;;
35839;SDS011;35514;50.504;30.500;2023-08-30T10:29:43;11.55;;;5.18;;
35839;SDS011;35514;50.504;30.500;2023-08-30T10:32:13;12.15;;;7.10;;
35839;SDS011;35514;50.504;30.500;2023-08-30T10:34:47;13.20;;;4.80;;
35839;SDS011;35514;50.504;30.500;2023-08-30T10:37:15;9.10;;;5.85;;
35839;SDS011;35514;50.504;30.500;2023-08-30T10:39:47;15.73;;;7.93;;
35839;SDS011;35514;50.504;30.500;2023-08-30T10:42:16;11.90;;;6.88;;
35839;SDS011;35514;50.504;30.500;2023-08-30T10:44:48;11.05;;;5.72;;
35839;SDS011;35514;50.504;30.500;2023-08-30T10:47:36;13.77;;;5.30;;
35839;SDS011;35514;50.504;30.500;2023-08-30T10:50:14;17.67;;;6.20;;
35839;SDS011;35514;50.504;30.500;2023-08-30T10:52:43;12.73;;;5.95;;
35839;SDS011;35514;50.504;30.500;2023-08-30T10:55:24;11.80;;;6.07;;
35839;SDS011;35514;50.504;30.500;2023-08-30T10:57:58;13.02;;;5.97;;
35839;SDS011;35514;50.504;30.500;2023-08-30T11:00:29;16.63;;;5.78;;
35839;SDS011;35514;50.504;30.500;2023-08-30T11:02:57;13.60;;;5.85;;
35839;SDS011;35514;50.504;30.500;2023-08-30T11:05:28;10.38;;;5.53;;
35839;SDS011;35514;50.504;30.500;2023-08-30T11:07:56;11.88;;;5.72;;
35839;SDS011;35514;50.504;30.500;2023-08-30T11:10:24;11.38;;;5.15;;
35839;SDS011;35514;50.504;30.500;2023-08-30T11:12:52;11.18;;;6.00;;
35839;SDS011;35514;50.504;30.500;2023-08-30T11:15:20;12.95;;;6.68;;
35839;SDS011;35514;50.504;30.500;2023-08-30T11:17:49;8.45;;;5.47;;
35839;SDS011;35514;50.504;30.500;2023-08-30T11:20:17;10.70;;;5.60;;
35839;SDS011;35514;50.504;30.500;2023-08-30T11:22:47;12.32;;;5.70;;
35839;SDS011;35514;50.504;30.500;2023-08-30T11:25:16;13.70;;;5.47;;
35839;SDS011;35514;50.504;30.500;2023-08-30T11:27:44;8.68;;;5.45;;
35839;SDS011;35514;50.504;30.500;2023-08-30T11:30:12;8.35;;;4.90;;
35839;SDS011;35514;50.504;30.500;2023-08-30T11:32:41;10.10;;;5.00;;
35839;SDS011;35514;50.504;30.500;2023-08-30T11:35:11;9.98;;;5.40;;
35839;SDS011;35514;50.504;30.500;2023-08-30T11:37:39;12.65;;;7.93;;
35839;SDS011;35514;50.504;30.500;2023-08-30T11:40:08;7.25;;;4.78;;
35839;SDS011;35514;50.504;30.500;2023-08-30T11:42:36;8.93;;;5.18;;
35839;SDS011;35514;50.504;30.500;2023-08-30T11:45:04;7.32;;;4.60;;
35839;SDS011;35514;50.504;30.500;2023-08-30T11:47:34;12.18;;;5.35;;
35839;SDS011;35514;50.504;30.500;2023-08-30T11:50:02;10.65;;;6.68;;
35839;SDS011;35514;50.504;30.500;2023-08-30T11:52:34;13.50;;;6.18;;
35839;SDS011;35514;50.504;30.500;2023-08-30T11:55:02;8.63;;;5.00;;
35839;SDS011;35514;50.504;30.500;2023-08-30T11:57:32;11.60;;;5.75;;
35839;SDS011;35514;50.504;30.500;2023-08-30T12:00:06;9.88;;;5.57;;
35839;SDS011;35514;50.504;30.500;2023-08-30T12:02:34;11.43;;;5.90;;
35839;SDS011;35514;50.504;30.500;2023-08-30T12:05:03;8.60;;;6.03;;
35839;SDS011;35514;50.504;30.500;2023-08-30T12:07:31;10.18;;;5.30;;
35839;SDS011;35514;50.504;30.500;2023-08-30T12:10:07;13.73;;;5.82;;
35839;SDS011;35514;50.504;30.500;2023-08-30T12:12:35;8.38;;;5.35;;
35839;SDS011;35514;50.504;30.500;2023-08-30T12:15:07;12.70;;;5.10;;
35839;SDS011;35514;50.504;30.500;2023-08-30T12:17:35;14.60;;;5.40;;
35839;SDS011;35514;50.504;30.500;2023-08-30T12:20:03;10.52;;;4.93;;
35839;SDS011;35514;50.504;30.500;2023-08-30T12:22:37;14.35;;;5.25;;
35839;SDS011;35514;50.504;30.500;2023-08-30T12:25:16;9.73;;;5.50;;
35839;SDS011;35514;50.504;30.500;2023-08-30T12:27:45;13.48;;;6.35;;
35839;SDS011;35514;50.504;30.500;2023-08-30T12:30:13;8.43;;;5.28;;
35839;SDS011;35514;50.504;30.500;2023-08-30T12:32:42;15.52;;;6.05;;
35839;SDS011;35514;50.504;30.500;2023-08-30T12:35:12;12.52;;;6.13;;
35839;SDS011;35514;50.504;30.500;2023-08-30T12:37:40;14.15;;;5.20;;
35839;SDS011;35514;50.504;30.500;2023-08-30T12:40:08;8.48;;;5.20;;
35839;SDS011;35514;50.504;30.500;2023-08-30T12:42:38;9.60;;;5.53;;
35839;SDS011;35514;50.504;30.500;2023-08-30T12:45:06;13.52;;;5.80;;
35839;SDS011;35514;50.504;30.500;2023-08-30T12:47:34;9.90;;;5.43;;
35839;SDS011;35514;50.504;30.500;2023-08-30T12:50:02;13.40;;;5.72;;
35839;SDS011;35514;50.504;30.500;2023-08-30T12:52:30;12.93;;;5.57;;
35839;SDS011;35514;50.504;30.500;2023-08-30T12:54:58;10.20;;;5.38;;
35839;SDS011;35514;50.504;30.500;2023-08-30T12:57:26;12.90;;;5.82;;
35839;SDS011;35514;50.504;30.500;2023-08-30T12:59:55;13.02;;;5.55;;
35839;SDS011;35514;50.504;30.500;2023-08-30T13:02:23;10.90;;;5.70;;
35839;SDS011;35514;50.504;30.500;2023-08-30T13:04:51;10.88;;;5.70;;
35839;SDS011;35514;50.504;30.500;2023-08-30T13:07:18;12.23;;;5.22;;
35839;SDS011;35514;50.504;30.500;2023-08-30T13:09:46;6.97;;;5.30;;
35839;SDS011;35514;50.504;30.500;2023-08-30T13:12:14;9.25;;;5.53;;
35839;SDS011;35514;50.504;30.500;2023-08-30T13:14:43;11.27;;;5.82;;
35839;SDS011;35514;50.504;30.500;2023-08-30T13:17:12;10.35;;;5.30;;
35839;SDS011;35514;50.504;30.500;2023-08-30T13:19:40;15.40;;;5.30;;
35839;SDS011;35514;50.504;30.500;2023-08-30T13:22:08;8.70;;;5.30;;
35839;SDS011;35514;50.504;30.500;2023-08-30T13:24:36;16.17;;;5.28;;
35839;SDS011;35514;50.504;30.500;2023-08-30T13:27:04;11.98;;;4.97;;
35839;SDS011;35514;50.504;30.500;2023-08-30T13:29:32;10.13;;;5.70;;
35839;SDS011;35514;50.504;30.500;2023-08-30T13:32:00;10.50;;;5.47;;
35839;SDS011;35514;50.504;30.500;2023-08-30T13:34:29;18.48;;;5.72;;
35839;SDS011;35514;50.504;30.500;2023-08-30T13:36:57;8.63;;;5.03;;
35839;SDS011;35514;50.504;30.500;2023-08-30T13:39:25;10.40;;;5.80;;
35839;SDS011;35514;50.504;30.500;2023-08-30T13:41:53;11.00;;;5.38;;
35839;SDS011;35514;50.504;30.500;2023-08-30T13:44:23;7.70;;;5.45;;
35839;SDS011;35514;50.504;30.500;2023-08-30T13:46:50;11.18;;;5.18;;
35839;SDS011;35514;50.504;30.500;2023-08-30T13:49:18;19.90;;;5.32;;
35839;SDS011;35514;50.504;30.500;2023-08-30T13:51:48;20.98;;;6.75;;
35839;SDS011;35514;50.504;30.500;2023-08-30T13:54:16;9.07;;;6.22;;
35839;SDS011;35514;50.504;30.500;2023-08-30T13:56:43;10.07;;;5.72;;
35839;SDS011;35514;50.504;30.500;2023-08-30T13:59:11;14.57;;;5.47;;
35839;SDS011;35514;50.504;30.500;2023-08-30T14:01:39;9.52;;;5.43;;
35839;SDS011;35514;50.504;30.500;2023-08-30T14:04:07;9.35;;;5.65;;
35839;SDS011;35514;50.504;30.500;2023-08-30T14:06:35;17.20;;;5.28;;
35839;SDS011;35514;50.504;30.500;2023-08-30T14:09:05;10.02;;;5.05;;
35839;SDS011;35514;50.504;30.500;2023-08-30T14:11:34;11.10;;;5.68;;
35839;SDS011;35514;50.504;30.500;2023-08-30T14:14:04;14.73;;;5.50;;
35839;SDS011;35514;50.504;30.500;2023-08-30T14:16:32;14.43;;;5.80;;
35839;SDS011;35514;50.504;30.500;2023-08-30T14:19:00;13.75;;;5.95;;
35839;SDS011;35514;50.504;30.500;2023-08-30T14:21:31;9.38;;;5.90;;
35839;SDS011;35514;50.504;30.500;2023-08-30T14:23:59;18.13;;;5.35;;
35839;SDS011;35514;50.504;30.500;2023-08-30T14:26:29;12.30;;;5.57;;
35839;SDS011;35514;50.504;30.500;2023-08-30T14:28:57;14.00;;;5.43;;